Terminal Aerodrome Forecast
Issued by NWS Sioux Falls, SD

Home | Current Version | Previous Version | Text Only | Print | Product List | Glossary On
Versions: 1 2 3 4 5 6 7 8 9 10 11 12 13 14 15 16
819
FTUS43 KFSD 260222 AAA
TAFHON
TAF AMD
KHON 260222Z 2602/2624 36016G24KT P6SM VCSH SCT008 OVC015
      TEMPO 2602/2604 BKN008
     FM260400 35015G24KT P6SM OVC008
     FM261500 34016G25KT P6SM OVC010
     FM261900 34016G24KT P6SM OVC020=

USA.gov is the U.S. government's official web portal to all federal, state and local government web resources and services.